sensor_id;sensor_type;location;lat;lon;timestamp;pressure;altitude;pressure_sealevel;temperature;humidity
56632;BME280;42503;39.928;-75.152;2023-03-13T00:04:15;101499.44;;;22.11;33.73
56632;BME280;42503;39.928;-75.152;2023-03-13T00:14:16;101502.22;;;22.05;33.68
56632;BME280;42503;39.928;-75.152;2023-03-13T00:24:18;101506.94;;;22.00;33.71
56632;BME280;42503;39.928;-75.152;2023-03-13T00:34:19;101476.25;;;21.90;34.04
56632;BME280;42503;39.928;-75.152;2023-03-13T00:44:20;101511.91;;;21.88;33.82
56632;BME280;42503;39.928;-75.152;2023-03-13T00:54:22;101521.94;;;21.83;33.63
56632;BME280;42503;39.928;-75.152;2023-03-13T01:04:23;101519.66;;;21.75;33.86
56632;BME280;42503;39.928;-75.152;2023-03-13T01:14:24;101505.69;;;21.60;34.13
56632;BME280;42503;39.928;-75.152;2023-03-13T01:24:26;101537.16;;;21.66;33.90
56632;BME280;42503;39.928;-75.152;2023-03-13T01:34:30;101512.91;;;21.61;33.92
56632;BME280;42503;39.928;-75.152;2023-03-13T01:44:52;101492.75;;;21.39;34.07
56632;BME280;42503;39.928;-75.152;2023-03-13T01:55:00;101486.38;;;21.38;33.83
56632;BME280;42503;39.928;-75.152;2023-03-13T02:05:05;101508.97;;;21.47;33.92
56632;BME280;42503;39.928;-75.152;2023-03-13T02:15:19;101496.38;;;21.34;34.02
56632;BME280;42503;39.928;-75.152;2023-03-13T02:35:28;101500.47;;;21.26;33.88
56632;BME280;42503;39.928;-75.152;2023-03-13T02:45:30;101464.66;;;20.98;33.81
56632;BME280;42503;39.928;-75.152;2023-03-13T02:55:38;101517.47;;;21.30;33.93
56632;BME280;42503;39.928;-75.152;2023-03-13T03:05:41;101478.22;;;21.26;33.87
56632;BME280;42503;39.928;-75.152;2023-03-13T03:15:42;101487.66;;;21.25;34.18
56632;BME280;42503;39.928;-75.152;2023-03-13T03:25:44;101471.81;;;21.26;33.84
56632;BME280;42503;39.928;-75.152;2023-03-13T03:35:45;101460.09;;;21.24;33.98
56632;BME280;42503;39.928;-75.152;2023-03-13T03:45:46;101467.06;;;21.21;33.96
56632;BME280;42503;39.928;-75.152;2023-03-13T03:55:48;101462.84;;;21.19;33.86
56632;BME280;42503;39.928;-75.152;2023-03-13T04:05:49;101432.16;;;20.98;33.86
56632;BME280;42503;39.928;-75.152;2023-03-13T04:15:51;101452.81;;;21.13;34.03
56632;BME280;42503;39.928;-75.152;2023-03-13T04:25:52;101454.75;;;21.12;34.16
56632;BME280;42503;39.928;-75.152;2023-03-13T04:35:56;101438.09;;;21.22;33.15
56632;BME280;42503;39.928;-75.152;2023-03-13T04:46:00;101433.13;;;21.29;33.22
56632;BME280;42503;39.928;-75.152;2023-03-13T04:56:05;101423.09;;;21.28;33.34
56632;BME280;42503;39.928;-75.152;2023-03-13T05:06:06;101424.53;;;21.31;33.29
56632;BME280;42503;39.928;-75.152;2023-03-13T05:16:10;101400.28;;;21.26;33.05
56632;BME280;42503;39.928;-75.152;2023-03-13T05:26:12;101384.41;;;21.22;33.06
56632;BME280;42503;39.928;-75.152;2023-03-13T05:36:13;101396.72;;;21.31;32.81
56632;BME280;42503;39.928;-75.152;2023-03-13T05:46:15;101395.59;;;21.32;33.10
56632;BME280;42503;39.928;-75.152;2023-03-13T05:56:16;101388.34;;;21.31;32.97
56632;BME280;42503;39.928;-75.152;2023-03-13T06:06:17;101394.16;;;21.29;32.81
56632;BME280;42503;39.928;-75.152;2023-03-13T06:16:19;101393.31;;;21.29;32.62
56632;BME280;42503;39.928;-75.152;2023-03-13T06:26:23;101382.47;;;21.27;32.89
56632;BME280;42503;39.928;-75.152;2023-03-13T06:36:25;101380.78;;;21.21;32.59
56632;BME280;42503;39.928;-75.152;2023-03-13T06:46:35;101379.09;;;21.20;32.49
56632;BME280;42503;39.928;-75.152;2023-03-13T06:56:41;101379.66;;;21.22;32.75
56632;BME280;42503;39.928;-75.152;2023-03-13T07:06:43;101357.38;;;21.17;32.90
56632;BME280;42503;39.928;-75.152;2023-03-13T07:16:44;101350.69;;;21.13;32.51
56632;BME280;42503;39.928;-75.152;2023-03-13T07:26:46;101325.06;;;21.11;32.52
56632;BME280;42503;39.928;-75.152;2023-03-13T07:36:47;101312.84;;;21.12;32.83
56632;BME280;42503;39.928;-75.152;2023-03-13T07:46:49;101302.78;;;21.11;32.56
56632;BME280;42503;39.928;-75.152;2023-03-13T07:56:50;101291.34;;;21.02;32.73
56632;BME280;42503;39.928;-75.152;2023-03-13T08:06:52;101284.97;;;21.07;32.67
56632;BME280;42503;39.928;-75.152;2023-03-13T08:16:57;101263.81;;;21.06;32.36
56632;BME280;42503;39.928;-75.152;2023-03-13T08:26:58;101244.63;;;20.99;32.36
56632;BME280;42503;39.928;-75.152;2023-03-13T08:37:00;101255.47;;;20.96;32.50
56632;BME280;42503;39.928;-75.152;2023-03-13T08:47:01;101262.16;;;21.00;32.65
56632;BME280;42503;39.928;-75.152;2023-03-13T08:57:08;101253.22;;;20.98;32.92
56632;BME280;42503;39.928;-75.152;2023-03-13T09:07:12;101241.53;;;20.86;32.50
56632;BME280;42503;39.928;-75.152;2023-03-13T09:17:13;101247.09;;;20.91;32.66
56632;BME280;42503;39.928;-75.152;2023-03-13T09:27:15;101259.34;;;20.95;32.81
56632;BME280;42503;39.928;-75.152;2023-03-13T09:37:19;101257.13;;;20.97;33.15
56632;BME280;42503;39.928;-75.152;2023-03-13T09:47:41;101254.34;;;21.02;32.90
56632;BME280;42503;39.928;-75.152;2023-03-13T09:57:55;101235.44;;;20.94;33.23
56632;BME280;42503;39.928;-75.152;2023-03-13T10:08:09;101248.25;;;21.05;32.96
56632;BME280;42503;39.928;-75.152;2023-03-13T10:18:21;101248.53;;;21.09;33.16
56632;BME280;42503;39.928;-75.152;2023-03-13T10:28:24;101244.09;;;21.08;33.43
56632;BME280;42503;39.928;-75.152;2023-03-13T10:38:25;101244.34;;;21.06;33.40
56632;BME280;42503;39.928;-75.152;2023-03-13T10:48:35;101243.22;;;21.07;33.23
56632;BME280;42503;39.928;-75.152;2023-03-13T10:58:42;101251.03;;;21.10;33.59
56632;BME280;42503;39.928;-75.152;2023-03-13T11:08:44;101220.41;;;20.95;33.59
56632;BME280;42503;39.928;-75.152;2023-03-13T11:49:58;101278.56;;;21.06;34.04
56632;BME280;42503;39.928;-75.152;2023-03-13T12:10:39;101273.81;;;21.02;34.16
56632;BME280;42503;39.928;-75.152;2023-03-13T12:31:18;101261.31;;;21.04;34.23
56632;BME280;42503;39.928;-75.152;2023-03-13T12:41:25;101228.75;;;20.90;34.44
56632;BME280;42503;39.928;-75.152;2023-03-13T13:01:55;101225.97;;;21.00;34.50
56632;BME280;42503;39.928;-75.152;2023-03-13T13:12:26;101219.31;;;21.01;34.37
56632;BME280;42503;39.928;-75.152;2023-03-13T13:32:41;101192.53;;;20.74;34.58
56632;BME280;42503;39.928;-75.152;2023-03-13T14:03:41;101209.50;;;20.78;35.19
56632;BME280;42503;39.928;-75.152;2023-03-13T14:14:09;101184.44;;;20.68;34.93
56632;BME280;42503;39.928;-75.152;2023-03-13T14:24:12;101172.75;;;20.66;35.28
56632;BME280;42503;39.928;-75.152;2023-03-13T14:34:14;101174.69;;;20.65;35.32
56632;BME280;42503;39.928;-75.152;2023-03-13T14:44:25;101095.81;;;20.09;35.50
56632;BME280;42503;39.928;-75.152;2023-03-13T14:54:33;101164.97;;;20.58;35.54
56632;BME280;42503;39.928;-75.152;2023-03-13T15:05:01;101153.25;;;20.50;35.58
56632;BME280;42503;39.928;-75.152;2023-03-13T15:15:03;101145.75;;;20.56;35.31
56632;BME280;42503;39.928;-75.152;2023-03-13T15:25:17;101139.91;;;20.52;35.49
56632;BME280;42503;39.928;-75.152;2023-03-13T15:35:23;101127.94;;;20.52;35.26
56632;BME280;42503;39.928;-75.152;2023-03-13T15:45:27;101113.78;;;20.53;35.36
56632;BME280;42503;39.928;-75.152;2023-03-13T15:55:29;101108.47;;;20.52;35.82
56632;BME280;42503;39.928;-75.152;2023-03-13T16:05:36;101103.22;;;20.55;35.72
56632;BME280;42503;39.928;-75.152;2023-03-13T16:15:38;101099.91;;;20.59;35.55
56632;BME280;42503;39.928;-75.152;2023-03-13T16:25:39;101060.09;;;20.48;35.79
56632;BME280;42503;39.928;-75.152;2023-03-13T16:35:41;101067.91;;;20.66;36.18
56632;BME280;42503;39.928;-75.152;2023-03-13T16:45:42;101072.69;;;20.81;36.54
56632;BME280;42503;39.928;-75.152;2023-03-13T16:55:43;101053.47;;;20.85;36.67
56632;BME280;42503;39.928;-75.152;2023-03-13T17:05:47;101017.31;;;20.54;37.09
56632;BME280;42503;39.928;-75.152;2023-03-13T17:15:49;101013.41;;;20.50;37.20
56632;BME280;42503;39.928;-75.152;2023-03-13T17:25:50;101008.97;;;20.49;37.52
56632;BME280;42503;39.928;-75.152;2023-03-13T17:35:54;100951.69;;;20.48;37.01
56632;BME280;42503;39.928;-75.152;2023-03-13T17:46:01;100963.38;;;20.60;37.37
56632;BME280;42503;39.928;-75.152;2023-03-13T17:56:16;100903.31;;;20.44;37.48
56632;BME280;42503;39.928;-75.152;2023-03-13T18:06:25;100922.75;;;20.85;37.21
56632;BME280;42503;39.928;-75.152;2023-03-13T18:16:29;100911.88;;;21.03;36.09
56632;BME280;42503;39.928;-75.152;2023-03-13T18:26:39;100894.41;;;20.83;36.76
56632;BME280;42503;39.928;-75.152;2023-03-13T18:36:41;100866.03;;;20.86;36.60
56632;BME280;42503;39.928;-75.152;2023-03-13T18:46:45;100857.63;;;21.01;36.09
56632;BME280;42503;39.928;-75.152;2023-03-13T18:56:52;100805.97;;;20.79;36.41
56632;BME280;42503;39.928;-75.152;2023-03-13T19:06:54;100825.66;;;20.98;35.89
56632;BME280;42503;39.928;-75.152;2023-03-13T19:16:55;100732.09;;;20.43;36.02
56632;BME280;42503;39.928;-75.152;2023-03-13T19:27:01;100801.75;;;20.87;36.45
56632;BME280;42503;39.928;-75.152;2023-03-13T19:37:02;100785.03;;;20.97;36.50
56632;BME280;42503;39.928;-75.152;2023-03-13T19:47:04;100789.16;;;21.10;35.58
56632;BME280;42503;39.928;-75.152;2023-03-13T19:57:07;100781.94;;;21.09;35.89
56632;BME280;42503;39.928;-75.152;2023-03-13T20:07:09;100764.41;;;21.09;36.05
56632;BME280;42503;39.928;-75.152;2023-03-13T20:17:11;100755.75;;;21.10;35.63
56632;BME280;42503;39.928;-75.152;2023-03-13T20:27:12;100723.00;;;20.97;36.19
56632;BME280;42503;39.928;-75.152;2023-03-13T20:37:14;100752.13;;;21.15;36.75
56632;BME280;42503;39.928;-75.152;2023-03-13T20:47:16;100740.69;;;21.16;36.57
56632;BME280;42503;39.928;-75.152;2023-03-13T20:57:17;100729.56;;;21.16;36.68
56632;BME280;42503;39.928;-75.152;2023-03-13T21:07:20;100726.00;;;21.05;37.56
56632;BME280;42503;39.928;-75.152;2023-03-13T21:17:21;100739.59;;;21.17;37.26
56632;BME280;42503;39.928;-75.152;2023-03-13T21:27:22;100711.56;;;21.03;36.92
56632;BME280;42503;39.928;-75.152;2023-03-13T21:37:24;100746.25;;;21.21;36.40
56632;BME280;42503;39.928;-75.152;2023-03-13T21:47:25;100752.06;;;21.25;36.30
56632;BME280;42503;39.928;-75.152;2023-03-13T21:57:26;100727.63;;;21.17;36.70
56632;BME280;42503;39.928;-75.152;2023-03-13T22:07:28;100655.28;;;20.72;38.02
56632;BME280;42503;39.928;-75.152;2023-03-13T22:17:30;100755.09;;;21.34;38.70
56632;BME280;42503;39.928;-75.152;2023-03-13T22:27:32;100756.19;;;21.38;39.04
56632;BME280;42503;39.928;-75.152;2023-03-13T22:37:33;100737.03;;;21.31;39.01
56632;BME280;42503;39.928;-75.152;2023-03-13T22:47:35;100753.97;;;21.40;38.89
56632;BME280;42503;39.928;-75.152;2023-03-13T22:57:39;100758.97;;;21.38;38.94
56632;BME280;42503;39.928;-75.152;2023-03-13T23:07:43;100758.97;;;21.38;38.62
56632;BME280;42503;39.928;-75.152;2023-03-13T23:17:44;100748.13;;;21.36;39.09
56632;BME280;42503;39.928;-75.152;2023-03-13T23:27:48;100751.19;;;21.35;39.01
56632;BME280;42503;39.928;-75.152;2023-03-13T23:37:50;100765.09;;;21.35;39.39
56632;BME280;42503;39.928;-75.152;2023-03-13T23:47:55;100760.09;;;21.37;39.01
56632;BME280;42503;39.928;-75.152;2023-03-13T23:57:56;100763.97;;;21.41;39.43
